Time;durP1;ratioP1;P1;durP2;ratioP2;P2;SDS_P1;SDS_P2;PMS_P1;PMS_P2;Temp;Humidity;BMP_temperature;BMP_pressure;BME280_temperature;BME280_humidity;BME280_pressure;Samples;Min_cycle;Max_cycle;Signal;HPM_P1;HPM_P2
2024/02/01 00:00:06;;;;;;;99.20;42.33;;;-4.50;99.90;;;;;;4229368;28;20259;-61
2024/02/01 00:02:07;;;;;;;90.53;42.20;;;-4.50;99.90;;;;;;4229697;27;20085;-61
2024/02/01 00:04:08;;;;;;;103.22;44.80;;;-4.50;99.90;;;;;;4228778;27;20260;-60
2024/02/01 00:06:10;;;;;;;93.40;44.17;;;-4.40;99.90;;;;;;4229972;28;20472;-61
2024/02/01 00:08:11;;;;;;;103.72;48.35;;;-4.40;99.90;;;;;;4228688;27;20101;-58
2024/02/01 00:10:12;;;;;;;93.43;42.75;;;-4.40;99.90;;;;;;4229646;28;20020;-58
2024/02/01 00:12:14;;;;;;;103.47;46.05;;;-4.40;99.90;;;;;;4228254;28;20080;-61
2024/02/01 00:14:15;;;;;;;94.60;43.88;;;-4.40;99.90;;;;;;4229656;27;20059;-60
2024/02/01 00:16:23;;;;;;;86.43;42.20;;;-4.40;99.90;;;;;;4228667;27;20027;-59
2024/02/01 00:18:24;;;;;;;97.90;41.50;;;-4.30;99.90;;;;;;4229661;27;20321;-61
2024/02/01 00:20:25;;;;;;;86.60;41.17;;;-4.40;99.90;;;;;;4228203;28;20268;-61
2024/02/01 00:22:26;;;;;;;88.00;41.63;;;-4.40;99.90;;;;;;4229144;28;20101;-56
2024/02/01 00:24:28;;;;;;;82.00;38.28;;;-4.30;99.90;;;;;;4228082;28;20479;-60
2024/02/01 00:26:29;;;;;;;80.72;36.08;;;-4.30;99.90;;;;;;4229014;28;20036;-62
2024/02/01 00:28:33;;;;;;;81.63;35.37;;;-4.30;99.90;;;;;;4228398;27;20044;-61
2024/02/01 00:30:34;;;;;;;79.23;37.43;;;-4.30;99.90;;;;;;4229262;27;20340;-62
2024/02/01 00:32:35;;;;;;;82.22;38.92;;;-4.20;99.90;;;;;;4228054;28;20260;-60
2024/02/01 00:34:41;;;;;;;82.22;35.97;;;-4.30;99.90;;;;;;4228045;28;20104;-61
2024/02/01 00:36:43;;;;;;;81.57;36.53;;;-4.20;99.90;;;;;;4228985;28;20020;-61
2024/02/01 00:38:44;;;;;;;79.35;37.13;;;-4.20;99.90;;;;;;4228161;27;20039;-61
2024/02/01 00:40:45;;;;;;;87.00;40.63;;;-4.20;99.90;;;;;;4228848;28;20036;-58
2024/02/01 00:42:46;;;;;;;83.63;38.03;;;-4.20;99.90;;;;;;4228034;28;20047;-61
2024/02/01 00:44:47;;;;;;;85.75;39.17;;;-4.20;99.90;;;;;;4229073;28;20272;-61
2024/02/01 00:46:48;;;;;;;79.60;36.27;;;-4.20;99.90;;;;;;4227978;28;20053;-60
2024/02/01 00:48:50;;;;;;;71.20;33.80;;;-4.20;99.90;;;;;;4229093;28;20268;-60
2024/02/01 00:50:51;;;;;;;71.13;34.30;;;-4.20;99.90;;;;;;4227899;28;20696;-56
2024/02/01 00:52:52;;;;;;;74.10;33.53;;;-4.20;99.90;;;;;;4228676;28;20256;-61
2024/02/01 00:54:53;;;;;;;69.05;31.73;;;-4.30;99.90;;;;;;4227674;28;20039;-60
2024/02/01 00:56:54;;;;;;;62.03;30.27;;;-4.30;99.90;;;;;;4228660;28;20468;-60
2024/02/01 00:58:55;;;;;;;55.17;29.23;;;-4.30;99.90;;;;;;4227898;28;20264;-60
2024/02/01 01:00:57;;;;;;;66.72;32.53;;;-4.30;99.90;;;;;;4228888;28;20105;-58
2024/02/01 01:02:59;;;;;;;64.35;27.60;;;-4.40;99.90;;;;;;4228153;27;20080;-60
2024/02/01 01:05:00;;;;;;;58.50;29.63;;;-4.50;99.90;;;;;;4226999;27;20077;-60
2024/02/01 01:07:01;;;;;;;60.60;29.92;;;-4.60;99.90;;;;;;4228485;27;20272;-61
2024/02/01 01:09:02;;;;;;;69.18;31.55;;;-4.70;99.90;;;;;;4227657;28;20396;-61
2024/02/01 01:11:04;;;;;;;64.38;32.58;;;-4.70;99.90;;;;;;4228444;28;20473;-60
2024/02/01 01:13:05;;;;;;;73.93;33.72;;;-4.70;99.90;;;;;;4227370;28;20460;-59
2024/02/01 01:15:06;;;;;;;69.47;31.67;;;-4.70;99.90;;;;;;4228610;28;20108;-60
2024/02/01 01:17:08;;;;;;;84.00;35.30;;;-4.70;99.90;;;;;;4227295;28;20027;-58
2024/02/01 01:19:09;;;;;;;75.93;35.78;;;-4.70;99.90;;;;;;4228721;28;20069;-58
2024/02/01 01:21:12;;;;;;;77.70;36.63;;;-4.60;99.90;;;;;;4226840;28;20077;-59
2024/02/01 01:23:13;;;;;;;76.88;35.47;;;-4.60;99.90;;;;;;4228281;28;20065;-59
2024/02/01 01:25:14;;;;;;;78.28;36.85;;;-4.60;99.90;;;;;;4227557;27;20100;-61
2024/02/01 01:27:15;;;;;;;86.53;41.25;;;-4.50;99.90;;;;;;4228166;28;20576;-60
2024/02/01 01:29:16;;;;;;;89.78;39.00;;;-4.50;99.90;;;;;;4227360;27;20031;-61
2024/02/01 01:31:18;;;;;;;88.78;41.53;;;-4.40;99.90;;;;;;4228320;28;20089;-61
2024/02/01 01:33:19;;;;;;;87.70;40.85;;;-4.50;99.90;;;;;;4226549;28;20025;-60
2024/02/01 01:35:20;;;;;;;93.25;42.42;;;-4.40;99.90;;;;;;4227959;28;20108;-61
2024/02/01 01:37:21;;;;;;;91.63;42.08;;;-4.30;99.90;;;;;;4227704;28;20068;-60
2024/02/01 01:39:22;;;;;;;87.53;41.50;;;-4.20;99.90;;;;;;4227176;28;20080;-61
2024/02/01 01:41:23;;;;;;;84.63;40.17;;;-4.10;99.90;;;;;;4228021;28;20052;-60
2024/02/01 01:43:25;;;;;;;84.68;40.10;;;-4.10;99.90;;;;;;4227034;28;20080;-60
2024/02/01 01:45:26;;;;;;;89.28;40.88;;;-4.00;99.90;;;;;;4227574;28;20031;-61
2024/02/01 01:47:28;;;;;;;88.68;41.05;;;-3.90;99.90;;;;;;4227097;28;20085;-59
2024/02/01 01:49:30;;;;;;;88.70;41.30;;;-3.90;99.90;;;;;;4228294;28;20031;-60
2024/02/01 01:51:33;;;;;;;90.10;41.03;;;-3.80;99.90;;;;;;4227168;28;20252;-60
2024/02/01 01:53:36;;;;;;;88.23;41.43;;;-3.80;99.90;;;;;;4228223;28;20532;-60
2024/02/01 01:55:37;;;;;;;87.73;41.73;;;-3.70;99.90;;;;;;4227349;28;20299;-60
2024/02/01 01:57:39;;;;;;;93.27;41.30;;;-3.60;99.90;;;;;;4227944;28;20264;-60
2024/02/01 01:59:40;;;;;;;87.07;41.73;;;-3.50;99.90;;;;;;4227188;28;20269;-60
2024/02/01 02:01:45;;;;;;;86.57;41.63;;;-3.50;99.90;;;;;;4228559;28;20666;-61
2024/02/01 02:03:47;;;;;;;99.70;44.67;;;-3.40;99.90;;;;;;4225361;28;20480;-59
2024/02/01 02:05:49;;;;;;;82.40;39.07;;;-3.40;99.90;;;;;;4228323;28;20272;-59
2024/02/01 02:07:50;;;;;;;87.33;40.47;;;-3.40;99.90;;;;;;4226584;28;20264;-60
2024/02/01 02:09:51;;;;;;;87.43;39.47;;;-3.40;99.90;;;;;;4227548;28;20352;-59
2024/02/01 02:11:53;;;;;;;78.87;39.03;;;-3.40;99.90;;;;;;4227563;28;20819;-60
2024/02/01 02:13:54;;;;;;;83.67;37.53;;;-3.30;99.90;;;;;;4227192;28;20327;-59
2024/02/01 02:15:56;;;;;;;75.00;35.43;;;-3.30;99.90;;;;;;4227620;28;20337;-60
2024/02/01 02:17:57;;;;;;;71.43;35.30;;;-3.40;99.90;;;;;;4226789;28;20260;-60
2024/02/01 02:20:17;;;;;;;76.88;36.90;;;-3.40;99.90;;;;;;4228015;28;20662;-60
2024/02/01 02:22:19;;;;;;;80.27;36.67;;;-3.50;99.90;;;;;;4226555;28;20385;-62
2024/02/01 02:24:21;;;;;;;77.90;36.27;;;-3.60;99.90;;;;;;4226398;28;20272;-59
2024/02/01 02:26:22;;;;;;;80.60;37.33;;;-3.60;99.90;;;;;;4227013;28;20267;-59
2024/02/01 02:28:23;;;;;;;71.27;34.37;;;-3.70;99.90;;;;;;4227623;28;20268;-60
2024/02/01 02:30:24;;;;;;;71.37;36.43;;;-3.80;99.90;;;;;;4227048;28;20336;-60
2024/02/01 02:32:25;;;;;;;80.90;36.22;;;-3.90;99.90;;;;;;4227791;28;20613;-58
2024/02/01 02:34:26;;;;;;;73.93;35.13;;;-4.00;99.90;;;;;;4226317;28;20445;-59
2024/02/01 02:36:28;;;;;;;75.50;35.83;;;-4.00;99.90;;;;;;4227783;28;20088;-60
2024/02/01 02:38:29;;;;;;;81.83;38.20;;;-4.10;99.90;;;;;;4226583;28;20309;-59
2024/02/01 02:40:30;;;;;;;76.10;37.90;;;-4.20;99.90;;;;;;4228095;28;20309;-60
2024/02/01 02:42:31;;;;;;;83.60;37.47;;;-4.20;99.90;;;;;;4226253;28;20032;-62
2024/02/01 02:44:32;;;;;;;83.25;38.95;;;-4.20;99.90;;;;;;4227550;28;20749;-59
2024/02/01 02:46:34;;;;;;;77.40;37.40;;;-4.20;99.90;;;;;;4226956;28;20027;-59
2024/02/01 02:48:37;;;;;;;85.43;41.88;;;-4.20;99.90;;;;;;4227416;28;20301;-59
2024/02/01 02:50:38;;;;;;;82.80;40.03;;;-4.20;99.90;;;;;;4227107;28;20027;-61
2024/02/01 02:52:42;;;;;;;89.97;40.63;;;-4.20;99.90;;;;;;4227085;28;20305;-59
2024/02/01 02:54:43;;;;;;;93.30;40.77;;;-4.20;99.90;;;;;;4227212;28;20309;-60
2024/02/01 02:56:44;;;;;;;92.47;42.67;;;-4.20;99.90;;;;;;4228658;28;20260;-59
2024/02/01 02:58:45;;;;;;;85.20;40.60;;;-4.20;99.90;;;;;;4230796;28;20314;-59
2024/02/01 03:00:47;;;;;;;92.37;41.57;;;-4.20;99.90;;;;;;4228786;28;20084;-59
2024/02/01 03:02:48;;;;;;;88.70;41.83;;;-4.20;99.90;;;;;;4230267;28;20272;-59
2024/02/01 03:04:49;;;;;;;85.43;42.33;;;-4.20;99.90;;;;;;4229483;28;20271;-58
2024/02/01 03:06:51;;;;;;;85.35;40.33;;;-4.20;99.90;;;;;;4230667;28;20264;-60
2024/02/01 03:08:53;;;;;;;86.97;40.17;;;-4.20;99.90;;;;;;4229209;28;20055;-60
2024/02/01 03:10:54;;;;;;;92.57;41.25;;;-4.20;99.90;;;;;;4230379;28;20112;-59
2024/02/01 03:12:55;;;;;;;89.63;39.53;;;-4.20;99.90;;;;;;4229209;28;20536;-60
2024/02/01 03:14:56;;;;;;;93.57;41.83;;;-4.30;99.90;;;;;;4230898;27;20279;-59
2024/02/01 03:16:58;;;;;;;95.70;43.35;;;-4.30;99.90;;;;;;4229447;27;20352;-60
2024/02/01 03:18:59;;;;;;;82.75;41.33;;;-4.30;99.90;;;;;;4228508;28;20032;-60
2024/02/01 03:21:00;;;;;;;87.40;42.50;;;-4.40;99.90;;;;;;4228857;28;20036;-59
2024/02/01 03:23:01;;;;;;;90.07;41.77;;;-4.40;99.90;;;;;;4229557;28;20073;-60
2024/02/01 03:25:03;;;;;;;90.10;42.63;;;-4.40;99.90;;;;;;4230125;28;20310;-60
2024/02/01 03:27:11;;;;;;;95.93;40.70;;;-4.30;99.90;;;;;;4229300;27;20548;-59
2024/02/01 03:29:15;;;;;;;91.43;41.50;;;-4.40;99.90;;;;;;4229562;28;20296;-60
2024/02/01 03:31:17;;;;;;;89.57;42.28;;;-4.40;99.90;;;;;;4229521;28;20027;-60
2024/02/01 03:33:20;;;;;;;103.00;43.07;;;-4.30;99.90;;;;;;4229674;28;20476;-60
2024/02/01 03:35:21;;;;;;;91.15;42.85;;;-4.30;99.90;;;;;;4228853;28;20303;-60
2024/02/01 03:37:24;;;;;;;94.10;43.35;;;-4.40;99.90;;;;;;4230124;28;20080;-59
2024/02/01 03:39:26;;;;;;;85.17;42.07;;;-4.40;99.90;;;;;;4228931;28;20429;-59
2024/02/01 03:41:28;;;;;;;90.43;41.65;;;-4.40;99.90;;;;;;4228522;28;20340;-59
2024/02/01 03:43:29;;;;;;;84.77;40.13;;;-4.40;99.90;;;;;;4228669;28;20119;-59
2024/02/01 03:45:31;;;;;;;94.45;44.08;;;-4.40;99.90;;;;;;4229846;27;20337;-60
2024/02/01 03:47:32;;;;;;;93.75;43.08;;;-4.40;99.90;;;;;;4228960;27;20417;-59
2024/02/01 03:49:33;;;;;;;97.07;44.13;;;-4.40;99.90;;;;;;4229733;28;20035;-59
2024/02/01 03:51:36;;;;;;;91.80;44.25;;;-4.40;99.90;;;;;;4228624;28;20077;-59
2024/02/01 03:53:37;;;;;;;84.95;42.10;;;-4.40;99.90;;;;;;4229319;28;20031;-60
2024/02/01 03:55:40;;;;;;;91.93;42.27;;;-4.50;99.90;;;;;;4228505;28;20052;-59
2024/02/01 03:57:45;;;;;;;97.20;44.75;;;-4.50;99.90;;;;;;4229104;28;20303;-60
2024/02/01 03:59:46;;;;;;;94.57;43.40;;;-4.50;99.90;;;;;;4226450;28;20073;-60
2024/02/01 04:01:47;;;;;;;95.03;43.28;;;-4.50;99.90;;;;;;4228458;28;20028;-61
2024/02/01 04:03:49;;;;;;;92.13;42.23;;;-4.60;99.90;;;;;;4227638;27;20567;-61
2024/02/01 04:05:50;;;;;;;96.28;43.45;;;-4.50;99.90;;;;;;4213438;28;20268;-59
2024/02/01 04:07:55;;;;;;;89.47;42.03;;;-4.50;99.90;;;;;;4212197;28;20028;-59
2024/02/01 04:09:56;;;;;;;86.55;42.17;;;-4.50;99.90;;;;;;4223668;28;20108;-59
2024/02/01 04:11:58;;;;;;;91.03;42.97;;;-4.50;99.90;;;;;;4228940;28;20105;-60
2024/02/01 04:14:00;;;;;;;90.00;41.45;;;-4.50;99.90;;;;;;4227071;28;20654;-59
2024/02/01 04:16:01;;;;;;;94.93;43.20;;;-4.40;99.90;;;;;;4229470;28;20044;-58
2024/02/01 04:18:04;;;;;;;87.53;40.33;;;-4.40;99.90;;;;;;4228083;27;20472;-60
2024/02/01 04:20:06;;;;;;;85.45;41.10;;;-4.40;99.90;;;;;;4228839;28;20051;-60
2024/02/01 04:22:10;;;;;;;88.97;42.08;;;-4.40;99.90;;;;;;4227436;28;20040;-60
2024/02/01 04:24:11;;;;;;;87.07;42.33;;;-4.40;99.90;;;;;;4229178;28;20027;-59
2024/02/01 04:26:15;;;;;;;86.23;40.23;;;-4.40;99.90;;;;;;4226408;28;20272;-60
2024/02/01 04:28:18;;;;;;;83.00;38.72;;;-4.40;99.90;;;;;;4224831;28;20341;-58
2024/02/01 04:30:23;;;;;;;69.20;35.35;;;-4.50;99.90;;;;;;4227110;28;20487;-60
2024/02/01 04:32:25;;;;;;;75.53;37.35;;;-4.50;99.90;;;;;;4228843;28;20072;-57
2024/02/01 04:34:26;;;;;;;77.50;35.63;;;-4.50;99.90;;;;;;4227825;28;20643;-60
2024/02/01 04:36:27;;;;;;;72.82;34.38;;;-4.60;99.90;;;;;;4228761;27;20337;-62
2024/02/01 04:38:29;;;;;;;69.82;34.85;;;-4.60;99.90;;;;;;4228015;27;20544;-60
2024/02/01 04:40:30;;;;;;;69.25;34.97;;;-4.60;99.90;;;;;;4228227;27;20487;-61
2024/02/01 04:42:35;;;;;;;73.60;34.53;;;-4.60;99.90;;;;;;4228101;28;20028;-59
2024/02/01 04:44:36;;;;;;;73.65;36.92;;;-4.70;99.90;;;;;;4227672;28;20260;-60
2024/02/01 04:46:37;;;;;;;80.15;36.97;;;-4.70;99.90;;;;;;4228859;28;20024;-60
2024/02/01 04:48:38;;;;;;;100.72;44.63;;;-4.60;99.90;;;;;;4227482;28;20032;-59
2024/02/01 04:50:40;;;;;;;91.28;43.17;;;-4.70;99.90;;;;;;4229051;27;20036;-60
2024/02/01 04:52:41;;;;;;;86.45;40.95;;;-4.80;99.90;;;;;;4227640;28;20068;-62
2024/02/01 04:54:42;;;;;;;91.05;41.45;;;-4.90;99.90;;;;;;4227148;28;20544;-62
2024/02/01 04:56:44;;;;;;;95.32;43.35;;;-4.90;99.90;;;;;;4210860;28;20052;-61
2024/02/01 04:58:45;;;;;;;88.05;42.20;;;-5.00;99.90;;;;;;4211921;28;20515;-61
2024/02/01 05:00:47;;;;;;;90.55;43.30;;;-5.00;99.90;;;;;;4215616;27;20023;-59
2024/02/01 05:02:48;;;;;;;90.47;41.67;;;-5.10;99.90;;;;;;4228521;28;20047;-59
2024/02/01 05:04:49;;;;;;;84.15;40.92;;;-5.10;99.90;;;;;;4227180;28;20035;-58
2024/02/01 05:06:51;;;;;;;89.97;40.05;;;-5.00;99.90;;;;;;4227035;28;20096;-57
2024/02/01 05:08:52;;;;;;;96.50;45.60;;;-5.00;99.90;;;;;;4227472;28;20084;-57
2024/02/01 05:10:56;;;;;;;95.82;44.15;;;-5.00;99.90;;;;;;4227070;28;20051;-63
2024/02/01 05:12:59;;;;;;;90.63;41.70;;;-5.00;99.90;;;;;;4226850;28;20016;-59
2024/02/01 05:15:01;;;;;;;100.15;42.60;;;-5.00;99.90;;;;;;4227427;28;20100;-60
2024/02/01 05:17:02;;;;;;;100.50;44.45;;;-5.10;99.90;;;;;;4227935;28;20083;-61
2024/02/01 05:19:08;;;;;;;86.35;42.33;;;-5.00;99.90;;;;;;4224835;28;20744;-62
2024/02/01 05:21:09;;;;;;;85.80;41.25;;;-5.00;99.90;;;;;;4227380;28;20073;-58
2024/02/01 05:23:10;;;;;;;95.70;42.92;;;-5.00;99.90;;;;;;4226958;28;20035;-60
2024/02/01 05:25:19;;;;;;;91.60;42.63;;;-5.00;99.90;;;;;;4227907;28;20464;-60
2024/02/01 05:27:20;;;;;;;100.35;42.95;;;-5.00;99.90;;;;;;4211294;28;20104;-61
2024/02/01 05:29:23;;;;;;;94.15;42.03;;;-5.00;99.90;;;;;;4225279;28;20033;-60
2024/02/01 05:31:26;;;;;;;89.35;42.08;;;-5.00;99.90;;;;;;4226929;28;20023;-61
2024/02/01 05:33:28;;;;;;;99.05;43.10;;;-4.90;99.90;;;;;;4225303;28;20468;-62
2024/02/01 05:35:30;;;;;;;94.15;43.17;;;-4.90;99.90;;;;;;4226139;28;20093;-61
2024/02/01 05:37:31;;;;;;;91.82;42.25;;;-4.90;99.90;;;;;;4228438;28;20019;-60
2024/02/01 05:39:33;;;;;;;91.97;44.25;;;-4.80;99.90;;;;;;4225841;28;20128;-60
2024/02/01 05:41:38;;;;;;;96.95;45.03;;;-4.70;99.90;;;;;;4228501;28;20035;-59
2024/02/01 05:43:40;;;;;;;89.22;44.08;;;-4.70;99.90;;;;;;4227265;28;20020;-61
2024/02/01 05:45:41;;;;;;;101.45;47.22;;;-4.80;99.90;;;;;;4228213;28;20047;-60
2024/02/01 05:47:43;;;;;;;100.47;48.42;;;-4.80;99.90;;;;;;4226938;28;20433;-61
2024/02/01 05:49:46;;;;;;;99.27;45.60;;;-4.80;99.90;;;;;;4225915;28;20039;-61
2024/02/01 05:51:48;;;;;;;102.45;46.25;;;-4.80;99.90;;;;;;4214623;28;20260;-63
2024/02/01 05:53:50;;;;;;;98.32;46.85;;;-4.80;99.90;;;;;;4210426;28;20036;-62
2024/02/01 05:55:51;;;;;;;99.55;45.42;;;-4.80;99.90;;;;;;4210645;28;20074;-62
2024/02/01 05:57:52;;;;;;;99.32;48.03;;;-4.80;99.90;;;;;;4226127;28;20092;-64
2024/02/01 05:59:53;;;;;;;96.63;46.22;;;-4.70;99.90;;;;;;4225994;28;20456;-59
2024/02/01 06:01:55;;;;;;;104.35;44.47;;;-4.80;99.90;;;;;;4225730;28;20024;-61
2024/02/01 06:03:56;;;;;;;89.72;41.75;;;-4.80;99.90;;;;;;4226675;28;20039;-61
2024/02/01 06:05:58;;;;;;;92.97;44.50;;;-4.90;99.90;;;;;;4224952;28;20023;-61
2024/02/01 06:07:59;;;;;;;92.87;44.37;;;-5.00;99.90;;;;;;4226473;28;20039;-62
2024/02/01 06:10:00;;;;;;;91.60;43.03;;;-5.00;99.90;;;;;;4226249;28;21075;-62
2024/02/01 06:12:01;;;;;;;93.00;44.83;;;-5.10;99.90;;;;;;4227343;28;20032;-61
2024/02/01 06:14:02;;;;;;;109.10;46.28;;;-5.10;99.90;;;;;;4226365;28;20035;-59
2024/02/01 06:16:04;;;;;;;106.53;46.50;;;-5.00;99.90;;;;;;4227546;28;20088;-62
2024/02/01 06:18:05;;;;;;;94.95;44.42;;;-4.90;99.90;;;;;;4226582;28;20093;-61
2024/02/01 06:20:08;;;;;;;96.45;47.00;;;-4.70;99.90;;;;;;4227625;28;20089;-61
2024/02/01 06:22:09;;;;;;;104.72;46.95;;;-4.60;99.90;;;;;;4226938;28;20449;-61
2024/02/01 06:24:10;;;;;;;104.72;47.53;;;-4.40;99.90;;;;;;4227170;28;20463;-61
2024/02/01 06:26:28;;;;;;;107.68;47.95;;;-4.20;99.90;;;;;;4225848;28;20097;-61
2024/02/01 06:28:29;;;;;;;96.63;46.67;;;-4.10;99.90;;;;;;4227233;28;20039;-61
2024/02/01 06:30:30;;;;;;;101.10;48.85;;;-3.90;99.90;;;;;;4227562;28;20321;-61
2024/02/01 06:32:31;;;;;;;103.30;48.67;;;-3.60;99.90;;;;;;4230100;28;20027;-60
2024/02/01 06:34:38;;;;;;;99.23;46.70;;;-3.50;99.90;;;;;;4230964;27;20302;-60
2024/02/01 06:36:40;;;;;;;94.33;45.33;;;-3.20;99.90;;;;;;4229547;28;20691;-61
2024/02/01 06:41:17;;;;;;;90.90;44.73;;;-2.70;99.90;;;;;;4229598;28;20252;-61
2024/02/01 06:43:27;;;;;;;104.77;46.47;;;-2.60;99.90;;;;;;4230181;28;20272;-62
2024/02/01 06:45:29;;;;;;;83.63;43.47;;;-2.40;99.90;;;;;;4229728;28;20260;-62
2024/02/01 06:47:38;;;;;;;80.73;39.93;;;-2.20;99.90;;;;;;4230729;28;20092;-62
2024/02/01 06:50:00;;;;;;;86.03;42.97;;;-2.20;99.90;;;;;;4229822;28;20298;-62
2024/02/01 06:54:38;;;;;;;93.83;48.47;;;-2.20;99.90;;;;;;4229963;28;20264;-61
2024/02/01 06:57:18;;;;;;;104.77;50.83;;;-2.20;99.90;;;;;;4229414;28;20304;-62
2024/02/01 06:59:21;;;;;;;96.33;46.90;;;-2.50;99.90;;;;;;4227895;28;20343;-61
2024/02/01 07:01:33;;;;;;;85.53;43.70;;;-2.70;99.90;;;;;;4229536;28;20244;-60
2024/02/01 07:04:31;;;;;;;90.97;42.73;;;-3.00;99.90;;;;;;4230748;27;20314;-61
2024/02/01 07:08:02;;;;;;;87.73;44.07;;;-3.40;99.90;;;;;;4230385;28;20317;-60
2024/02/01 07:10:14;;;;;;;93.57;44.10;;;-3.50;99.90;;;;;;4229415;27;20264;-60
2024/02/01 07:12:19;;;;;;;96.83;46.27;;;-3.60;99.90;;;;;;4230096;28;20264;-56
2024/02/01 07:14:20;;;;;;;89.40;43.97;;;-3.50;99.90;;;;;;4229142;28;20253;-60
2024/02/01 07:16:36;;;;;;;96.07;45.80;;;-3.50;99.90;;;;;;4230335;27;20686;-61
2024/02/01 07:18:43;;;;;;;87.30;46.87;;;-3.60;99.90;;;;;;4229344;27;20273;-61
2024/02/01 07:20:50;;;;;;;96.80;46.70;;;-3.60;99.90;;;;;;4230076;28;20317;-59
2024/02/01 07:23:34;;;;;;;102.37;48.50;;;-3.60;99.90;;;;;;4228587;28;20368;-60
2024/02/01 07:25:36;;;;;;;102.07;47.40;;;-3.40;99.90;;;;;;4224175;28;20341;-59
2024/02/01 07:57:58;;;;;;;91.93;44.03;;;-2.70;99.90;;;;;;4228195;28;20364;-61
2024/02/01 07:59:59;;;;;;;99.17;45.63;;;-2.70;99.90;;;;;;4229498;28;20272;-61
2024/02/01 08:02:23;;;;;;;100.60;47.27;;;-2.60;99.90;;;;;;4228779;28;20329;-61
2024/02/01 08:07:44;;;;;;;94.53;46.07;;;-2.60;99.90;;;;;;4229337;28;20333;-60
2024/02/01 08:09:11;;;;;;;93.77;46.13;;;-2.60;99.90;;;;;;4229686;28;20328;-61
2024/02/01 08:11:17;;;;;;;110.37;49.10;;;-2.50;99.90;;;;;;4228281;28;20294;-61
2024/02/01 08:13:19;;;;;;;98.13;46.40;;;-2.50;99.90;;;;;;4229440;28;20264;-61
2024/02/01 08:15:20;;;;;;;94.77;46.53;;;-2.40;99.90;;;;;;4228140;28;20282;-60
2024/02/01 08:17:21;;;;;;;96.33;48.63;;;-2.20;99.90;;;;;;4229380;28;20283;-61
2024/02/01 08:19:23;;;;;;;92.47;45.37;;;-2.00;99.90;;;;;;4227967;28;20313;-61
2024/02/01 08:21:26;;;;;;;98.17;44.47;;;-1.90;99.90;;;;;;4229332;28;20348;-61
2024/02/01 08:23:27;;;;;;;90.40;44.17;;;-1.60;99.90;;;;;;4227978;28;20329;-61
2024/02/01 08:25:30;;;;;;;96.97;43.53;;;-1.30;99.90;;;;;;4229277;27;20401;-61
2024/02/01 08:27:31;;;;;;;86.43;42.40;;;-1.00;99.90;;;;;;4227801;28;20313;-62
2024/02/01 08:29:36;;;;;;;81.70;42.10;;;-0.70;99.90;;;;;;4228923;27;20252;-62
2024/02/01 08:31:37;;;;;;;83.57;41.73;;;-0.40;99.90;;;;;;4228606;28;20313;-61
2024/02/01 08:33:42;;;;;;;85.10;39.57;;;-0.30;99.90;;;;;;4228778;28;20276;-61
2024/02/01 08:35:44;;;;;;;74.07;40.47;;;-0.20;99.90;;;;;;4228405;27;20252;-60
2024/02/01 08:37:46;;;;;;;81.57;40.63;;;-0.10;99.90;;;;;;4228323;27;20341;-61
2024/02/01 08:39:47;;;;;;;73.63;36.97;;;0.20;99.90;;;;;;4228516;28;20325;-62
2024/02/01 08:41:48;;;;;;;76.10;39.47;;;0.30;99.90;;;;;;4227588;28;20356;-61
2024/02/01 08:43:49;;;;;;;79.50;37.93;;;0.40;99.90;;;;;;4226746;28;20768;-61
2024/02/01 08:45:50;;;;;;;74.07;38.63;;;0.70;99.90;;;;;;4227387;28;20455;-61
2024/02/01 08:47:52;;;;;;;77.87;39.27;;;0.90;99.90;;;;;;4228776;28;20337;-61
2024/02/01 08:49:56;;;;;;;68.97;37.77;;;1.00;99.90;;;;;;4227864;28;20264;-61
2024/02/01 08:51:57;;;;;;;71.90;39.20;;;0.90;99.90;;;;;;4229007;27;20333;-60
2024/02/01 08:53:58;;;;;;;71.63;39.13;;;0.70;99.90;;;;;;4227246;28;20871;-60
2024/02/01 08:55:59;;;;;;;78.10;40.50;;;0.50;99.90;;;;;;4228324;28;20264;-60
2024/02/01 08:58:08;;;;;;;64.77;36.07;;;0.40;99.90;;;;;;4227337;27;20264;-61
2024/02/01 09:00:25;;;;;;;75.57;38.93;;;0.10;99.90;;;;;;4227218;28;20804;-60
2024/02/01 09:02:27;;;;;;;72.27;35.83;;;0.20;99.90;;;;;;4226513;27;20294;-60
2024/02/01 09:04:28;;;;;;;70.87;35.13;;;-0.10;99.90;;;;;;4228537;28;20267;-61
2024/02/01 09:06:31;;;;;;;66.90;34.47;;;-0.20;99.90;;;;;;4227234;28;20307;-59
2024/02/01 09:08:35;;;;;;;70.60;35.93;;;-0.40;99.90;;;;;;4228695;27;20260;-62
2024/02/01 09:10:37;;;;;;;64.30;33.80;;;-0.40;99.90;;;;;;4227578;27;20313;-62
2024/02/01 09:12:38;;;;;;;70.20;35.73;;;-0.50;99.90;;;;;;4228079;28;20328;-61
2024/02/01 09:14:40;;;;;;;73.47;36.63;;;-0.60;99.90;;;;;;4227343;28;20276;-61
2024/02/01 09:16:41;;;;;;;71.33;34.30;;;-0.60;99.90;;;;;;4227910;28;20304;-60
2024/02/01 09:18:42;;;;;;;78.50;33.83;;;-0.60;99.90;;;;;;4227557;28;20278;-61
2024/02/01 09:20:44;;;;;;;63.20;34.13;;;-0.60;99.90;;;;;;4227437;28;20313;-61
2024/02/01 09:22:48;;;;;;;71.30;35.83;;;-0.70;99.90;;;;;;4228160;28;20371;-60
2024/02/01 09:24:49;;;;;;;72.07;34.10;;;-0.60;99.90;;;;;;4227236;27;20280;-60
2024/02/01 09:26:50;;;;;;;67.67;33.57;;;-0.60;99.90;;;;;;4228101;28;20264;-61
2024/02/01 09:28:51;;;;;;;72.10;36.03;;;-0.50;99.90;;;;;;4226920;28;20256;-60
2024/02/01 09:30:55;;;;;;;73.77;34.43;;;-0.50;99.90;;;;;;4227842;28;20259;-60
2024/02/01 09:32:56;;;;;;;75.07;35.90;;;-0.40;99.90;;;;;;4227045;28;20256;-60
2024/02/01 09:34:57;;;;;;;73.63;35.00;;;-0.60;99.90;;;;;;4228040;27;20672;-60
2024/02/01 09:36:58;;;;;;;70.10;34.40;;;-0.60;99.90;;;;;;4226763;28;20300;-60
2024/02/01 09:38:59;;;;;;;65.97;34.30;;;-0.60;99.90;;;;;;4227884;28;20674;-61
2024/02/01 09:41:02;;;;;;;76.57;34.83;;;-0.60;99.90;;;;;;4225517;28;20284;-60
2024/02/01 09:43:03;;;;;;;63.30;32.93;;;-0.60;99.90;;;;;;4227655;28;20276;-61
2024/02/01 09:45:09;;;;;;;62.73;32.57;;;-0.60;99.90;;;;;;4226747;28;20797;-61
2024/02/01 09:47:12;;;;;;;64.03;33.93;;;-0.50;99.90;;;;;;4227447;28;20256;-61
2024/02/01 09:49:13;;;;;;;61.27;31.17;;;-0.40;99.90;;;;;;4226961;28;20289;-60
2024/02/01 09:51:18;;;;;;;66.93;33.07;;;-0.40;99.90;;;;;;4227263;28;20324;-61
2024/02/01 09:53:21;;;;;;;63.67;32.47;;;-0.40;99.90;;;;;;4227237;28;20268;-60
2024/02/01 09:55:22;;;;;;;67.07;34.60;;;-0.40;99.90;;;;;;4227031;28;20268;-61
2024/02/01 09:57:23;;;;;;;65.13;33.03;;;-0.40;99.90;;;;;;4226307;28;20288;-61
2024/02/01 09:59:24;;;;;;;63.07;32.97;;;-0.40;99.90;;;;;;4226653;28;20260;-61
2024/02/01 10:01:26;;;;;;;65.37;33.93;;;-0.40;99.90;;;;;;4227814;28;20290;-60
2024/02/01 10:03:28;;;;;;;64.07;31.80;;;-0.30;99.90;;;;;;4226977;28;20333;-61
2024/02/01 10:05:29;;;;;;;74.60;33.83;;;-0.20;99.90;;;;;;4228409;28;20268;-57
2024/02/01 10:07:30;;;;;;;63.00;33.20;;;-0.20;99.90;;;;;;4230191;28;20264;-61
2024/02/01 10:09:31;;;;;;;58.60;31.23;;;-0.20;99.90;;;;;;4231316;27;20309;-61
2024/02/01 10:11:32;;;;;;;67.03;34.00;;;-0.30;99.90;;;;;;4229853;28;20269;-60
2024/02/01 10:13:37;;;;;;;72.37;35.03;;;-0.30;99.90;;;;;;4231042;28;20268;-60
2024/02/01 10:15:43;;;;;;;67.83;33.57;;;-0.30;99.90;;;;;;4229906;28;20732;-59
2024/02/01 10:17:51;;;;;;;58.63;32.73;;;-0.30;99.90;;;;;;4230943;28;20287;-60
2024/02/01 10:19:52;;;;;;;69.33;35.50;;;-0.40;99.90;;;;;;4229798;28;20317;-61
2024/02/01 10:22:03;;;;;;;65.20;34.30;;;-0.40;99.90;;;;;;4230616;28;20310;-61
2024/02/01 10:24:05;;;;;;;61.03;35.00;;;-0.50;99.90;;;;;;4229924;27;20261;-61
2024/02/01 10:26:18;;;;;;;68.43;34.93;;;-0.50;99.90;;;;;;4230783;28;20268;-60
2024/02/01 10:28:22;;;;;;;79.07;34.33;;;-0.50;99.90;;;;;;4228291;28;20348;-61
2024/02/01 10:30:23;;;;;;;67.80;33.97;;;-0.50;99.90;;;;;;4231037;28;20328;-60
2024/02/01 10:32:32;;;;;;;65.67;33.17;;;-0.40;99.90;;;;;;4230343;28;20318;-60
2024/02/01 10:34:34;;;;;;;68.80;34.83;;;-0.40;99.90;;;;;;4230614;28;20333;-61
2024/02/01 10:36:40;;;;;;;70.77;34.20;;;-0.40;99.90;;;;;;4230286;27;20697;-60
2024/02/01 10:38:44;;;;;;;62.83;32.97;;;-0.40;99.90;;;;;;4230272;28;20267;-61
2024/02/01 10:41:11;;;;;;;63.27;33.07;;;-0.30;99.90;;;;;;4230214;28;20322;-61
2024/02/01 10:43:17;;;;;;;67.60;33.50;;;-0.30;99.90;;;;;;4230012;28;20271;-61
2024/02/01 10:45:20;;;;;;;66.77;34.20;;;-0.20;99.90;;;;;;4229959;28;20735;-61
2024/02/01 10:47:25;;;;;;;61.87;32.77;;;-0.20;99.90;;;;;;4230182;28;20271;-61
2024/02/01 10:49:30;;;;;;;63.20;32.63;;;-0.10;99.90;;;;;;4230110;28;20252;-61
2024/02/01 10:51:33;;;;;;;65.23;34.63;;;-0.10;99.90;;;;;;4229952;28;20260;-61
2024/02/01 10:53:37;;;;;;;68.23;34.23;;;0.00;99.90;;;;;;4230417;27;20317;-61
2024/02/01 10:55:42;;;;;;;62.73;33.30;;;0.00;99.90;;;;;;4229775;27;20276;-62
2024/02/01 10:57:43;;;;;;;66.87;32.97;;;0.10;99.90;;;;;;4230130;28;20295;-61
2024/02/01 10:59:46;;;;;;;59.80;32.63;;;0.10;99.90;;;;;;4229553;27;20280;-61
2024/02/01 11:01:47;;;;;;;66.33;33.60;;;0.10;99.90;;;;;;4230477;28;20268;-58